Toronto/Billy Bishop Toronto City Airport

Airport
ICAO code: 
CYTZ
IATA Code: 
YTZ
Summary
ICAO Region: 
NAM
Territory: 
Location: 
Toronto, Ontario,
Serving: 
Toronto
Elevation: 
252 ft
Coordinates: 
Aerial View: 
43° 37' 42.035" N, 79° 23' 45.863" W
Airport WX: 
Lake Effect Snow
Metar
Observation
CYTZ 072044Z AUTO 27012KT 9SM BKN036 OVC048 M02/M09 A3016 RMK SLP218
Station
Toronto Island Airport Automated Reporting Station
Date/Time
2021-12-07 20:44:00
Wind direction
270°
Wind speed
12 kts
Lowest cloud amount
broken clouds
Temperature
-2°C
Dew point
-9°C
Humidity
58%
Weather condition
n/a

Description

The Billy Bishop Toronto City Airport, more commonly known as the Toronto Island Airport and previously known officially as Toronto City Centre Airport, is a small airport located on the Toronto Islands in Toronto, Ontario, Canada.

Climatology

Humid continental climate (Köppen climate classification Dfa) - characterized by four seasons: cold, windy, snowy winters, mild springs, hot, humid summers, and crisp and relatively short autumns. Precipitation reaches its lowest in January and February and peaks in summer and latter half of spring.

Runways

Designator Length Width Surface Rops
15/33 847 46 ASP Yes/Yes
6/24 894 46 ASP Yes/Yes
8/26 1216 46 ASP Yes/Yes
Airport map: 
Aerial View: 

Accidents and Serious Incidents at or in the vicinity of CYTZ

SKYbrary Partners:

Safety knowledge contributed by: